Terminal Aerodrome Forecast
Issued by NWS Grand Forks, ND

Home | Current Version | Previous Version | Graphics & Text | Print | Product List | Glossary On
Versions: 1 2 3 4 5 6 7 8 9 10 11 12 13 14 15 16 17 18 19 20 21
471
FTUS43 KFGF 231728
TAFGFK
TAF
KGFK 231728Z 2318/2418 18012KT P6SM OVC070
      TEMPO 2318/2320 5SM -RA BR OVC040
     FM232100 VRB06KT P6SM OVC050
     FM240700 35009KT P6SM BKN025
     FM241100 36010KT P6SM SCT030=

USA.gov is the U.S. government's official web portal to all federal, state and local government web resources and services.